Time;durP1;ratioP1;P1;durP2;ratioP2;P2;SDS_P1;SDS_P2;PMS_P1;PMS_P2;Temp;Humidity;BMP_temperature;BMP_pressure;BME280_temperature;BME280_humidity;BME280_pressure;Samples;Min_cycle;Max_cycle;Signal;HPM_P1;HPM_P2
2021/09/11 00:00:50;;;;;;;5.03;4.53;;;;;;;28.51;43.58;98125.13;5100384;28;20220;-74
2021/09/11 00:03:18;;;;;;;5.30;4.80;;;;;;;28.82;43.06;98136.94;5109848;28;20216;-74
2021/09/11 00:05:45;;;;;;;4.87;4.37;;;;;;;29.07;42.00;98140.97;5107221;28;20196;-74
2021/09/11 00:08:12;;;;;;;7.20;4.77;;;;;;;28.29;44.58;98135.28;5105681;28;20204;-74
2021/09/11 00:10:40;;;;;;;6.33;4.37;;;;;;;28.31;44.18;98128.34;5102608;28;20224;-75
2021/09/11 00:13:08;;;;;;;8.37;4.93;;;;;;;28.62;43.59;98123.72;5104030;28;20576;-74
2021/09/11 00:15:37;;;;;;;5.40;4.70;;;;;;;28.72;43.33;98117.97;5101599;28;20308;-75
2021/09/11 00:18:05;;;;;;;5.23;4.73;;;;;;;28.69;43.47;98124.09;5102038;28;20841;-74
2021/09/11 00:20:33;;;;;;;6.53;4.97;;;;;;;28.59;43.79;98118.06;5094074;28;20224;-74
2021/09/11 00:23:01;;;;;;;6.00;4.50;;;;;;;28.30;44.91;98115.75;5096908;28;20728;-74
2021/09/11 00:25:29;;;;;;;6.40;5.30;;;;;;;28.84;43.17;98117.41;5111634;28;20211;-74
2021/09/11 00:27:56;;;;;;;5.77;5.03;;;;;;;28.75;43.51;98114.63;5104816;28;20230;-74
2021/09/11 00:30:23;;;;;;;6.33;4.97;;;;;;;28.79;43.64;98121.06;5095584;28;20224;-74
2021/09/11 00:32:52;;;;;;;6.37;5.07;;;;;;;28.18;45.36;98114.69;5105132;28;20207;-74
2021/09/11 00:35:20;;;;;;;6.33;4.83;;;;;;;28.56;44.32;98119.50;5101071;28;20230;-74
2021/09/11 00:37:48;;;;;;;6.63;5.17;;;;;;;28.46;44.71;98116.19;5112224;28;20234;-74
2021/09/11 00:40:16;;;;;;;5.73;4.83;;;;;;;28.27;45.63;98110.88;5112280;28;20226;-74
2021/09/11 00:42:47;;;;;;;6.30;4.87;;;;;;;28.22;45.49;98108.25;5111090;28;20196;-74
2021/09/11 00:45:15;;;;;;;7.60;5.90;;;;;;;27.61;47.68;98112.69;5105235;28;20208;-74
2021/09/11 00:47:42;;;;;;;8.83;7.27;;;;;;;28.13;46.59;98114.81;5103960;28;20204;-74
2021/09/11 00:50:12;;;;;;;7.83;5.17;;;;;;;28.07;46.50;98111.34;5100237;28;20234;-73
2021/09/11 00:52:41;;;;;;;7.17;5.00;;;;;;;28.16;45.88;98120.47;5105113;28;20215;-73
2021/09/11 00:55:10;;;;;;;6.53;5.03;;;;;;;28.26;45.83;98116.66;5105984;28;20220;-74
2021/09/11 00:57:39;;;;;;;6.77;5.17;;;;;;;27.82;47.11;98120.19;5110290;28;20215;-74
2021/09/11 01:00:07;;;;;;;5.87;4.80;;;;;;;28.29;45.87;98116.06;5099582;28;20232;-74
2021/09/11 01:02:35;;;;;;;6.33;4.93;;;;;;;27.89;46.97;98125.25;5102832;28;20676;-74
2021/09/11 01:05:04;;;;;;;6.57;5.27;;;;;;;27.94;47.04;98123.22;5102170;28;20196;-74
2021/09/11 01:07:32;;;;;;;7.27;4.73;;;;;;;27.92;47.44;98117.19;5105323;28;20201;-73
2021/09/11 01:10:00;;;;;;;6.27;5.00;;;;;;;28.08;46.96;98121.19;5105206;28;20235;-74
2021/09/11 01:12:28;;;;;;;6.00;4.70;;;;;;;27.98;46.97;98117.91;5102008;28;20236;-73
2021/09/11 01:14:55;;;;;;;7.97;5.30;;;;;;;27.99;48.06;98122.28;5106026;28;20224;-74
2021/09/11 01:17:22;;;;;;;8.97;5.30;;;;;;;27.77;48.16;98111.22;5110772;28;20210;-73
2021/09/11 01:19:50;;;;;;;7.53;5.90;;;;;;;27.98;48.06;98118.69;5095587;28;20224;-73
2021/09/11 01:22:18;;;;;;;7.17;5.30;;;;;;;28.04;48.25;98119.41;5108086;28;20657;-73
2021/09/11 01:24:58;;;;;;;7.13;4.93;;;;;;;27.94;48.70;98112.22;5092007;28;20210;-73
2021/09/11 01:27:26;;;;;;;5.83;5.07;;;;;;;27.49;50.53;98107.72;5108205;28;20672;-74
2021/09/11 01:29:54;;;;;;;6.17;4.83;;;;;;;27.25;51.89;98109.88;5105642;28;20224;-73
2021/09/11 01:32:21;;;;;;;6.50;5.10;;;;;;;27.96;49.49;98112.72;5111198;28;20206;-73
2021/09/11 01:34:49;;;;;;;6.63;5.63;;;;;;;27.06;53.94;98114.63;5102995;28;20225;-73
2021/09/11 01:37:16;;;;;;;7.23;5.30;;;;;;;27.96;49.93;98111.91;5108412;28;20228;-73
2021/09/11 01:39:47;;;;;;;8.03;5.27;;;;;;;27.59;52.24;98107.50;5101481;28;20582;-73
2021/09/11 01:42:17;;;;;;;5.70;5.10;;;;;;;27.45;52.55;98106.72;5103406;28;20634;-73
2021/09/11 01:44:52;;;;;;;7.77;5.00;;;;;;;27.84;50.24;98117.94;5114380;28;20199;-73
2021/09/11 01:47:19;;;;;;;7.00;5.20;;;;;;;27.95;49.73;98116.59;5114916;28;20214;-73
2021/09/11 01:49:47;;;;;;;6.77;5.03;;;;;;;27.76;50.48;98120.59;5097791;28;20251;-74
2021/09/11 01:52:14;;;;;;;6.47;5.03;;;;;;;27.65;51.39;98121.91;5110326;28;20200;-73
2021/09/11 01:54:42;;;;;;;5.70;5.10;;;;;;;27.52;52.28;98125.50;5112973;28;20235;-73
2021/09/11 01:57:12;;;;;;;7.20;5.63;;;;;;;27.07;52.97;98129.13;5114934;28;20196;-73
2021/09/11 01:59:41;;;;;;;8.50;5.60;;;;;;;27.09;53.34;98127.72;5105486;28;20685;-73
2021/09/11 02:02:10;;;;;;;7.00;5.00;;;;;;;27.70;51.20;98136.34;5105894;28;20624;-73
2021/09/11 02:04:37;;;;;;;9.00;6.57;;;;;;;27.33;52.33;98131.09;5102928;28;20202;-73
2021/09/11 02:07:06;;;;;;;7.30;5.60;;;;;;;27.42;52.70;98133.94;5108114;28;20204;-73
2021/09/11 02:09:34;;;;;;;6.93;4.53;;;;;;;26.80;54.77;98134.59;5101842;28;20220;-73
2021/09/11 02:12:02;;;;;;;6.37;4.63;;;;;;;27.21;53.77;98136.28;5114728;28;20192;-73
2021/09/11 02:14:29;;;;;;;5.70;4.80;;;;;;;27.31;53.02;98133.31;5114250;28;20673;-74
2021/09/11 02:16:58;;;;;;;6.93;5.17;;;;;;;27.25;53.51;98134.53;5109572;28;20200;-73
2021/09/11 02:19:25;;;;;;;5.77;5.17;;;;;;;27.64;51.77;98134.81;5102760;28;20224;-74
2021/09/11 02:21:52;;;;;;;6.57;5.10;;;;;;;27.05;54.18;98134.13;5094167;28;20218;-72
2021/09/11 02:24:20;;;;;;;7.87;5.33;;;;;;;27.31;53.31;98136.06;5108467;28;20577;-73
2021/09/11 02:26:47;;;;;;;6.13;4.73;;;;;;;27.45;52.03;98136.88;5107886;28;20215;-73
2021/09/11 02:29:15;;;;;;;6.47;5.00;;;;;;;27.79;50.76;98131.78;5105613;28;20235;-73
2021/09/11 02:31:42;;;;;;;6.27;5.40;;;;;;;27.59;51.69;98126.72;5104115;28;20211;-72
2021/09/11 02:34:11;;;;;;;6.73;5.20;;;;;;;27.44;52.95;98129.78;5098655;28;20264;-73
2021/09/11 02:36:38;;;;;;;5.77;5.17;;;;;;;27.22;53.55;98120.66;5105042;28;20223;-72
2021/09/11 02:39:06;;;;;;;6.10;4.87;;;;;;;27.33;53.47;98131.09;5103939;28;20575;-72
2021/09/11 02:41:33;;;;;;;6.43;5.37;;;;;;;27.83;51.09;98135.50;5102003;28;20295;-74
2021/09/11 02:44:02;;;;;;;6.43;5.23;;;;;;;27.98;50.29;98137.13;5109049;28;20208;-73
2021/09/11 02:46:30;;;;;;;5.90;4.70;;;;;;;27.76;51.45;98137.03;5101934;28;20249;-72
2021/09/11 02:48:58;;;;;;;6.77;5.10;;;;;;;27.77;51.31;98133.97;5095204;28;20201;-73
2021/09/11 02:51:27;;;;;;;5.90;4.83;;;;;;;27.77;51.44;98130.44;5109615;28;20222;-71
2021/09/11 02:53:55;;;;;;;5.40;4.37;;;;;;;27.57;52.29;98139.91;5092644;28;20533;-74
2021/09/11 02:56:22;;;;;;;5.70;5.10;;;;;;;27.80;51.01;98132.56;5104948;28;20759;-71
2021/09/11 02:58:50;;;;;;;6.37;4.37;;;;;;;27.85;51.08;98140.69;5104208;28;20196;-74
2021/09/11 03:01:17;;;;;;;5.03;4.33;;;;;;;27.00;54.32;98134.22;5098109;28;20216;-73
2021/09/11 03:03:44;;;;;;;5.27;4.60;;;;;;;27.58;52.50;98129.75;5107102;28;20546;-71
2021/09/11 03:06:12;;;;;;;6.83;4.90;;;;;;;27.62;52.34;98137.03;5098498;28;20204;-72
2021/09/11 03:08:40;;;;;;;4.93;4.20;;;;;;;27.34;53.08;98127.25;5096849;28;20205;-72
2021/09/11 03:11:08;;;;;;;5.80;5.27;;;;;;;27.10;54.60;98125.78;5109446;28;20223;-72
2021/09/11 03:13:35;;;;;;;6.53;4.60;;;;;;;27.75;51.94;98130.75;5102149;28;20209;-72
2021/09/11 03:16:02;;;;;;;6.17;4.87;;;;;;;27.39;53.39;98124.41;5099903;28;20277;-71
2021/09/11 03:18:30;;;;;;;5.97;5.33;;;;;;;27.33;53.98;98124.81;5101928;28;20679;-72
2021/09/11 03:20:57;;;;;;;6.40;4.43;;;;;;;27.24;53.88;98121.16;5105851;28;20211;-72
2021/09/11 03:23:24;;;;;;;8.17;5.13;;;;;;;27.90;51.51;98127.69;5109746;28;20204;-72
2021/09/11 03:25:53;;;;;;;5.47;4.57;;;;;;;27.84;51.68;98128.09;5103766;28;20195;-72
2021/09/11 03:28:20;;;;;;;5.10;4.60;;;;;;;27.79;51.85;98126.28;5100183;28;20203;-72
2021/09/11 03:30:48;;;;;;;6.63;4.60;;;;;;;27.46;53.15;98119.31;5101158;28;20219;-71
2021/09/11 03:33:15;;;;;;;4.97;4.50;;;;;;;27.87;51.67;98119.28;5109541;28;20664;-72
2021/09/11 03:35:42;;;;;;;6.70;5.00;;;;;;;27.59;53.14;98128.63;5103788;28;20233;-72
2021/09/11 03:38:09;;;;;;;5.33;4.80;;;;;;;27.51;52.83;98134.84;5098257;28;20207;-72
2021/09/11 03:40:37;;;;;;;5.33;4.70;;;;;;;27.76;52.07;98128.81;5095771;28;20225;-72
2021/09/11 03:43:05;;;;;;;5.10;4.60;;;;;;;27.25;53.79;98122.75;5096773;28;20200;-72
2021/09/11 03:45:33;;;;;;;6.37;5.13;;;;;;;27.48;53.49;98127.22;5112647;28;20192;-72
2021/09/11 03:48:00;;;;;;;7.03;4.73;;;;;;;27.96;51.50;98128.34;5110217;28;20210;-74
2021/09/11 03:50:28;;;;;;;5.20;4.63;;;;;;;27.98;51.22;98126.94;5112277;28;20258;-71
2021/09/11 03:52:55;;;;;;;5.03;4.20;;;;;;;27.95;51.34;98129.50;5109082;28;20617;-74
2021/09/11 03:55:22;;;;;;;7.30;4.87;;;;;;;28.02;51.15;98133.44;5100125;28;20228;-74
2021/09/11 03:57:49;;;;;;;7.27;4.67;;;;;;;27.81;51.65;98125.97;5097005;28;20204;-74
2021/09/11 04:00:18;;;;;;;5.70;4.37;;;;;;;27.73;52.02;98127.50;5100312;28;20571;-74
2021/09/11 04:02:45;;;;;;;6.43;4.93;;;;;;;28.04;50.96;98127.63;5106803;28;20197;-72
2021/09/11 04:05:13;;;;;;;5.27;4.50;;;;;;;27.84;51.45;98133.59;5104182;28;20200;-74
2021/09/11 04:07:40;;;;;;;5.90;4.53;;;;;;;28.23;50.03;98125.53;5102255;28;20204;-72
2021/09/11 04:10:08;;;;;;;4.83;3.83;;;;;;;28.01;50.94;98126.31;5102339;28;20242;-74
2021/09/11 04:12:36;;;;;;;5.00;4.23;;;;;;;27.88;51.44;98129.91;5106946;28;20208;-72
2021/09/11 04:15:03;;;;;;;7.43;4.37;;;;;;;27.88;51.97;98129.13;5107160;28;20199;-73
2021/09/11 04:17:32;;;;;;;7.23;4.40;;;;;;;27.82;51.80;98144.06;5100404;28;20214;-73
2021/09/11 04:19:59;;;;;;;6.27;4.33;;;;;;;27.44;53.79;98134.44;5097514;28;20611;-73
2021/09/11 04:22:27;;;;;;;4.30;3.90;;;;;;;27.75;52.20;98140.88;5107124;28;20683;-73
2021/09/11 04:24:55;;;;;;;6.63;4.17;;;;;;;27.68;52.61;98133.09;5096516;28;20204;-73
2021/09/11 04:27:22;;;;;;;5.57;4.23;;;;;;;27.80;51.70;98138.06;5112360;28;20204;-74
2021/09/11 04:29:50;;;;;;;5.03;3.60;;;;;;;27.57;52.60;98134.41;5111672;28;20219;-72
2021/09/11 04:32:17;;;;;;;5.40;4.43;;;;;;;28.13;50.83;98139.50;5095747;28;20212;-73
2021/09/11 04:34:46;;;;;;;4.80;4.10;;;;;;;28.02;50.71;98140.88;5103347;28;20672;-72
2021/09/11 04:37:13;;;;;;;4.57;3.80;;;;;;;27.96;51.56;98140.16;5095686;28;20254;-73
2021/09/11 04:39:40;;;;;;;5.67;3.80;;;;;;;28.15;50.63;98143.56;5099904;28;20220;-72
2021/09/11 04:42:08;;;;;;;4.70;3.80;;;;;;;27.97;50.93;98141.78;5106670;28;20200;-73
2021/09/11 04:44:35;;;;;;;4.70;4.00;;;;;;;28.15;50.63;98142.75;5104447;28;20660;-72
2021/09/11 04:47:02;;;;;;;3.93;3.50;;;;;;;28.25;50.28;98145.25;5107617;28;20230;-72
2021/09/11 04:49:30;;;;;;;5.43;3.67;;;;;;;28.13;50.72;98148.53;5110025;28;20234;-72
2021/09/11 04:51:58;;;;;;;4.00;3.40;;;;;;;28.14;50.75;98149.34;5102067;28;20196;-72
2021/09/11 04:54:26;;;;;;;4.63;3.47;;;;;;;28.07;51.01;98154.47;5100521;28;20207;-72
2021/09/11 04:56:53;;;;;;;4.03;3.43;;;;;;;27.86;51.97;98147.78;5102012;28;20222;-72
2021/09/11 04:59:20;;;;;;;4.20;3.40;;;;;;;27.52;53.09;98152.91;5101636;28;20230;-73
2021/09/11 05:01:47;;;;;;;4.00;3.60;;;;;;;27.93;51.92;98154.47;5112130;28;20207;-72
2021/09/11 05:04:15;;;;;;;5.47;3.63;;;;;;;28.05;51.50;98146.53;5105837;28;20200;-72
2021/09/11 05:06:42;;;;;;;6.73;3.50;;;;;;;26.93;56.78;98153.78;5103550;28;20419;-72
2021/09/11 05:09:11;;;;;;;3.83;3.37;;;;;;;26.42;59.50;98153.03;5105880;28;20292;-72
2021/09/11 05:11:38;;;;;;;5.63;3.90;;;;;;;26.76;57.52;98155.47;5106086;28;20205;-73
2021/09/11 05:14:05;;;;;;;4.00;3.40;;;;;;;26.87;57.98;98159.66;5109817;28;20196;-72
2021/09/11 05:16:33;;;;;;;4.43;3.77;;;;;;;27.01;57.34;98158.53;5115856;28;20224;-72
2021/09/11 05:19:00;;;;;;;4.53;4.00;;;;;;;26.96;56.24;98161.38;5110644;28;20195;-72
2021/09/11 05:21:27;;;;;;;5.27;3.63;;;;;;;27.13;56.81;98163.53;5102803;28;20196;-73
2021/09/11 05:23:54;;;;;;;4.13;3.50;;;;;;;27.73;53.94;98162.34;5095373;28;20193;-72
2021/09/11 05:26:23;;;;;;;4.03;3.40;;;;;;;27.43;54.67;98166.53;5109152;28;20231;-72
2021/09/11 05:28:50;;;;;;;3.97;3.50;;;;;;;27.60;55.12;98165.91;5107736;28;20192;-72
2021/09/11 05:31:19;;;;;;;6.33;3.80;;;;;;;28.10;51.98;98162.91;5113154;28;20223;-72
2021/09/11 05:33:46;;;;;;;5.50;4.03;;;;;;;28.14;51.77;98169.38;5102598;28;20200;-72
2021/09/11 05:36:13;;;;;;;7.60;3.63;;;;;;;28.28;51.12;98174.84;5114446;28;20572;-73
2021/09/11 05:38:41;;;;;;;3.60;3.30;;;;;;;28.35;50.89;98170.53;5111159;28;20206;-72
2021/09/11 05:41:08;;;;;;;4.57;3.40;;;;;;;28.23;51.01;98169.47;5100772;28;20227;-73
2021/09/11 05:43:37;;;;;;;4.40;3.47;;;;;;;27.97;51.75;98177.44;5094856;28;20204;-73
2021/09/11 05:46:04;;;;;;;4.70;3.57;;;;;;;27.84;54.13;98170.06;5110155;28;20211;-73
2021/09/11 05:48:34;;;;;;;4.20;3.80;;;;;;;28.36;51.62;98177.63;5101108;28;20211;-74
2021/09/11 05:51:01;;;;;;;3.83;3.20;;;;;;;28.38;50.12;98191.06;5102463;28;20712;-73
2021/09/11 05:53:29;;;;;;;4.00;3.63;;;;;;;28.23;52.11;98185.94;5108858;28;20207;-73
2021/09/11 05:55:56;;;;;;;3.87;3.27;;;;;;;28.05;52.72;98178.66;5109822;28;20222;-72
2021/09/11 05:58:24;;;;;;;5.10;3.70;;;;;;;28.63;49.70;98183.03;5111812;28;20215;-72
2021/09/11 06:00:53;;;;;;;3.70;3.20;;;;;;;28.73;49.85;98187.47;5102784;28;20220;-75
2021/09/11 06:03:20;;;;;;;4.73;2.80;;;;;;;28.79;49.13;98188.97;5103855;28;20220;-77
2021/09/11 06:05:47;;;;;;;4.23;3.83;;;;;;;28.37;50.11;98183.94;5113442;28;20192;-79
2021/09/11 06:08:14;;;;;;;4.47;3.03;;;;;;;28.53;49.87;98193.47;5116370;28;20200;-80
2021/09/11 06:10:42;;;;;;;3.57;3.17;;;;;;;29.05;48.37;98182.53;5100678;28;20216;-73
2021/09/11 06:13:10;;;;;;;4.63;3.03;;;;;;;28.34;50.77;98190.06;5108211;28;20208;-80
2021/09/11 06:15:37;;;;;;;4.30;2.90;;;;;;;28.30;51.30;98189.03;5102870;27;20207;-78
2021/09/11 06:18:06;;;;;;;4.60;2.87;;;;;;;28.51;50.93;98181.97;5108815;28;20617;-77
2021/09/11 06:20:33;;;;;;;4.10;3.03;;;;;;;27.54;55.46;98175.34;5101238;28;20250;-76
2021/09/11 06:23:00;;;;;;;3.17;2.87;;;;;;;28.36;51.31;98188.63;5103006;28;20208;-74
2021/09/11 06:25:28;;;;;;;3.97;3.10;;;;;;;28.89;49.74;98196.94;5109673;28;20215;-73
2021/09/11 06:27:55;;;;;;;3.67;3.27;;;;;;;28.34;50.95;98199.13;5107213;28;20205;-73
2021/09/11 06:30:23;;;;;;;3.93;2.70;;;;;;;29.15;48.50;98206.19;5101459;28;20221;-75
2021/09/11 06:32:51;;;;;;;3.53;2.70;;;;;;;28.10;53.38;98187.59;5105644;28;20234;-80
2021/09/11 06:35:19;;;;;;;3.13;2.60;;;;;;;28.50;51.21;98197.66;5114506;28;20204;-74
2021/09/11 06:37:51;;;;;;;4.17;2.77;;;;;;;29.17;48.83;98199.25;5107429;28;20688;-76
2021/09/11 06:40:18;;;;;;;2.90;2.20;;;;;;;28.25;52.40;98189.16;5100329;28;20247;-75
2021/09/11 06:42:45;;;;;;;3.03;2.20;;;;;;;28.45;51.29;98200.53;5103130;28;20449;-73
2021/09/11 06:45:13;;;;;;;3.90;2.27;;;;;;;29.07;49.70;98199.50;5097209;28;20235;-74
2021/09/11 06:47:40;;;;;;;4.63;2.80;;;;;;;29.88;46.63;98211.81;5106262;28;20196;-74
2021/09/11 06:50:08;;;;;;;2.87;2.43;;;;;;;29.20;48.98;98209.63;5110221;28;20224;-74
2021/09/11 06:52:37;;;;;;;3.57;2.40;;;;;;;29.26;48.34;98202.84;5101582;28;20290;-72
2021/09/11 06:55:05;;;;;;;2.83;2.20;;;;;;;28.92;50.67;98194.38;5101425;28;20556;-73
2021/09/11 06:57:32;;;;;;;3.07;2.40;;;;;;;28.94;49.84;98194.06;5100295;28;20224;-73
2021/09/11 06:59:59;;;;;;;5.40;2.63;;;;;;;28.93;50.90;98195.22;5104201;28;20219;-74
2021/09/11 07:02:27;;;;;;;3.20;2.73;;;;;;;29.92;46.37;98199.88;5099548;28;20201;-73
2021/09/11 07:04:54;;;;;;;2.57;2.20;;;;;;;29.33;47.12;98203.19;5109935;28;20204;-74
2021/09/11 07:07:21;;;;;;;2.40;2.03;;;;;;;28.60;51.21;98202.06;5097494;28;20740;-75
2021/09/11 07:09:50;;;;;;;3.67;2.30;;;;;;;30.07;45.60;98210.41;5103885;28;20256;-74
2021/09/11 07:12:17;;;;;;;2.60;2.30;;;;;;;29.54;49.79;98195.19;5102746;28;20209;-76
2021/09/11 07:14:45;;;;;;;3.93;2.47;;;;;;;29.92;47.72;98199.88;5095738;28;20665;-73
2021/09/11 07:17:12;;;;;;;2.40;2.10;;;;;;;29.51;48.48;98207.66;5106344;28;20220;-79
2021/09/11 07:19:39;;;;;;;2.43;2.17;;;;;;;29.60;48.09;98211.25;5105590;28;20260;-76
2021/09/11 07:22:07;;;;;;;2.30;2.07;;;;;;;29.64;47.90;98204.00;5112591;28;20213;-74
2021/09/11 07:24:34;;;;;;;1.97;1.77;;;;;;;30.94;44.10;98218.41;5108345;28;20298;-74
2021/09/11 07:27:03;;;;;;;3.87;2.10;;;;;;;29.75;47.69;98201.78;5111725;28;20289;-73
2021/09/11 07:29:30;;;;;;;2.20;2.00;;;;;;;30.03;46.39;98214.13;5107050;28;20293;-74
2021/09/11 07:31:57;;;;;;;2.97;2.00;;;;;;;30.06;45.55;98219.78;5110313;28;20210;-74
2021/09/11 07:34:25;;;;;;;2.13;1.87;;;;;;;28.99;50.89;98207.72;5104557;28;20230;-73
2021/09/11 07:36:52;;;;;;;3.53;2.07;;;;;;;29.78;47.11;98210.19;5111266;28;20223;-71
2021/09/11 07:39:19;;;;;;;1.97;1.77;;;;;;;31.32;41.82;98230.34;5111615;28;20223;-73
2021/09/11 07:41:46;;;;;;;2.97;2.23;;;;;;;30.60;43.74;98221.97;5097536;28;20203;-72
2021/09/11 07:44:15;;;;;;;2.87;1.87;;;;;;;31.51;41.32;98228.81;5095481;28;20201;-75
2021/09/11 07:46:42;;;;;;;2.87;1.70;;;;;;;31.37;42.08;98232.94;5093162;28;20211;-76
2021/09/11 07:49:10;;;;;;;2.47;1.80;;;;;;;30.27;44.67;98220.84;5099992;28;20216;-74
2021/09/11 07:51:37;;;;;;;1.70;1.60;;;;;;;30.41;43.33;98231.72;5104022;28;20662;-74
2021/09/11 07:54:04;;;;;;;3.10;2.20;;;;;;;31.11;42.23;98232.97;5101312;28;20732;-77
2021/09/11 07:56:32;;;;;;;2.43;2.00;;;;;;;31.24;42.09;98234.75;5106242;28;20237;-73
2021/09/11 07:58:59;;;;;;;4.00;1.77;;;;;;;30.76;43.42;98238.88;5101453;28;20203;-74
2021/09/11 08:01:29;;;;;;;1.87;1.73;;;;;;;30.32;44.53;98233.63;5100284;28;20655;-81
2021/09/11 08:03:57;;;;;;;2.78;2.00;;;;;;;31.67;40.77;98242.88;5101878;28;20205;-75
2021/09/11 08:06:24;;;;;;;1.90;1.67;;;;;;;30.53;43.69;98238.19;5103251;28;20537;-73
2021/09/11 08:08:51;;;;;;;1.87;1.67;;;;;;;30.93;42.60;98244.34;5103111;28;20199;-80
2021/09/11 08:11:19;;;;;;;2.13;1.60;;;;;;;31.78;41.61;98246.91;5106402;28;20220;-77
2021/09/11 08:13:46;;;;;;;3.45;1.65;;;;;;;31.77;41.67;98242.53;5102032;28;20213;-78
2021/09/11 08:16:13;;;;;;;2.15;1.60;;;;;;;31.73;39.99;98256.16;5104900;28;20199;-75
2021/09/11 08:18:43;;;;;;;3.25;1.85;;;;;;;31.24;41.22;98253.25;5109314;28;20212;-77
2021/09/11 08:21:10;;;;;;;1.90;1.80;;;;;;;32.32;39.50;98254.25;5106615;28;20238;-74
2021/09/11 08:23:38;;;;;;;2.65;1.88;;;;;;;30.57;43.40;98249.38;5104232;28;20563;-74
2021/09/11 08:26:06;;;;;;;2.90;1.92;;;;;;;31.65;39.71;98264.47;5106768;28;20207;-75
2021/09/11 08:28:34;;;;;;;2.10;1.70;;;;;;;31.26;41.05;98256.50;5102305;28;20218;-75
2021/09/11 08:31:01;;;;;;;2.35;2.00;;;;;;;32.22;39.63;98265.66;5105027;28;20310;-74
2021/09/11 08:33:29;;;;;;;2.25;1.88;;;;;;;32.51;38.45;98260.94;5103762;28;20200;-74
2021/09/11 08:35:57;;;;;;;2.75;2.10;;;;;;;33.11;36.85;98269.56;5103314;28;20213;-75
2021/09/11 08:38:25;;;;;;;3.55;1.70;;;;;;;33.05;36.96;98264.56;5106192;28;20294;-74
2021/09/11 08:40:52;;;;;;;3.97;2.30;;;;;;;32.12;39.30;98269.63;5101536;28;20215;-74
2021/09/11 08:43:20;;;;;;;2.83;1.92;;;;;;;32.52;38.96;98261.72;5103838;28;20200;-74
2021/09/11 08:45:47;;;;;;;3.35;2.40;;;;;;;31.91;38.85;98274.28;5106260;28;20189;-74
2021/09/11 08:48:14;;;;;;;3.03;2.50;;;;;;;31.80;39.80;98261.19;5106848;28;20203;-73
2021/09/11 08:50:42;;;;;;;2.33;2.03;;;;;;;32.26;38.74;98269.41;5107471;28;20325;-74
2021/09/11 08:53:12;;;;;;;3.15;2.40;;;;;;;31.80;40.22;98258.41;5114275;28;20330;-74
2021/09/11 08:55:40;;;;;;;4.15;2.20;;;;;;;32.30;38.72;98267.59;5105252;28;20276;-74
2021/09/11 08:58:09;;;;;;;3.95;2.42;;;;;;;32.33;38.02;98264.97;5108978;28;20675;-74
2021/09/11 09:00:39;;;;;;;4.15;2.63;;;;;;;32.02;38.63;98261.72;5107202;28;20223;-74
2021/09/11 09:03:26;;;;;;;2.45;2.08;;;;;;;32.20;38.52;98268.78;5105861;28;20204;-74
2021/09/11 09:05:53;;;;;;;5.63;2.75;;;;;;;32.31;38.29;98256.22;5103893;28;20229;-73
2021/09/11 09:08:29;;;;;;;2.75;1.92;;;;;;;33.25;35.99;98261.75;5110200;28;20204;-73
2021/09/11 09:10:56;;;;;;;3.55;2.03;;;;;;;33.60;34.83;98253.91;5098876;28;20227;-73
2021/09/11 09:13:24;;;;;;;2.08;1.60;;;;;;;33.19;34.87;98265.88;5108500;28;20575;-75
2021/09/11 09:15:51;;;;;;;3.20;1.75;;;;;;;33.23;35.22;98263.22;5106175;28;20207;-75
2021/09/11 09:18:18;;;;;;;2.95;1.92;;;;;;;32.70;35.82;98254.94;5107253;28;20223;-73
2021/09/11 09:20:45;;;;;;;2.03;1.83;;;;;;;32.21;37.84;98255.75;5103341;28;20220;-73
2021/09/11 09:23:17;;;;;;;2.80;2.10;;;;;;;32.30;36.97;98260.13;5095353;28;20239;-73
2021/09/11 09:25:46;;;;;;;2.47;2.00;;;;;;;32.56;36.17;98262.69;5105284;28;20243;-73
2021/09/11 09:28:14;;;;;;;3.90;1.80;;;;;;;31.61;39.08;98250.53;5101917;28;20207;-73
2021/09/11 09:30:43;;;;;;;2.75;2.08;;;;;;;30.67;41.74;98243.56;5104572;28;20220;-73
2021/09/11 09:33:20;;;;;;;2.63;1.70;;;;;;;30.86;41.25;98244.84;5109392;28;20200;-73
2021/09/11 09:35:47;;;;;;;3.22;1.85;;;;;;;30.76;41.06;98245.16;5098365;28;20199;-73
2021/09/11 09:38:15;;;;;;;2.90;2.20;;;;;;;32.23;37.78;98250.72;5105926;28;20254;-74
2021/09/11 09:40:46;;;;;;;2.97;1.88;;;;;;;32.46;36.25;98258.38;5101050;28;20229;-74
2021/09/11 09:43:17;;;;;;;4.93;1.90;;;;;;;31.50;38.81;98245.69;5104187;28;20214;-74
2021/09/11 09:45:44;;;;;;;2.40;1.83;;;;;;;32.61;37.38;98240.38;5106814;28;20204;-74
2021/09/11 09:48:14;;;;;;;4.97;1.60;;;;;;;33.03;35.42;98247.50;5106825;28;20656;-74
2021/09/11 09:50:43;;;;;;;2.63;1.55;;;;;;;31.88;37.82;98244.56;5105400;28;20318;-74
2021/09/11 09:53:13;;;;;;;3.22;1.70;;;;;;;32.57;36.62;98251.31;5099793;28;20204;-76
2021/09/11 09:55:42;;;;;;;2.70;1.83;;;;;;;32.31;37.34;98241.56;5100530;28;20648;-81
2021/09/11 09:58:11;;;;;;;3.05;1.65;;;;;;;30.82;40.58;98241.09;5107134;28;20682;-74
2021/09/11 10:00:38;;;;;;;2.63;1.48;;;;;;;32.21;36.89;98241.94;5111332;28;20219;-76
2021/09/11 10:03:05;;;;;;;2.25;1.67;;;;;;;32.56;36.10;98249.69;5104732;28;20255;-77
2021/09/11 10:05:33;;;;;;;2.00;1.55;;;;;;;31.13;39.55;98235.38;5095231;28;20208;-73
2021/09/11 10:08:06;;;;;;;3.40;1.80;;;;;;;32.29;37.27;98239.13;5107470;28;20199;-80
2021/09/11 10:10:35;;;;;;;2.00;1.80;;;;;;;33.51;35.40;98240.19;5110732;28;20705;-75
2021/09/11 10:13:07;;;;;;;2.85;1.80;;;;;;;33.20;35.39;98239.81;5108214;28;20203;-78
2021/09/11 10:15:37;;;;;;;1.63;1.42;;;;;;;32.46;36.47;98239.03;5108734;28;20200;-78
2021/09/11 10:18:05;;;;;;;2.85;1.50;;;;;;;32.13;37.36;98237.28;5103943;28;20235;-78
2021/09/11 10:21:09;;;;;;;1.80;1.52;;;;;;;33.41;35.20;98237.03;5096218;28;20224;-80
2021/09/11 10:23:36;;;;;;;2.60;1.65;;;;;;;31.42;39.43;98224.47;5101832;28;20214;-79
2021/09/11 10:26:04;;;;;;;1.50;1.40;;;;;;;30.51;41.41;98212.09;5102611;28;20210;-82
2021/09/11 10:28:31;;;;;;;1.95;1.50;;;;;;;31.17;40.07;98220.59;5108730;28;20204;-83
2021/09/11 10:31:07;;;;;;;2.92;1.80;;;;;;;31.27;39.18;98220.28;5111150;28;20247;-81
2021/09/11 10:33:42;;;;;;;2.88;1.90;;;;;;;30.37;41.51;98214.19;5117802;28;20286;-79
2021/09/11 10:36:13;;;;;;;3.10;1.70;;;;;;;31.09;39.17;98215.94;5101489;28;20295;-82
2021/09/11 10:38:41;;;;;;;1.85;1.60;;;;;;;31.12;39.37;98211.72;5099806;28;20231;-73
2021/09/11 10:41:11;;;;;;;2.30;1.80;;;;;;;32.06;37.26;98210.19;5103549;28;20216;-73
2021/09/11 10:43:38;;;;;;;1.92;1.50;;;;;;;33.23;34.53;98222.53;5105375;28;20299;-73
2021/09/11 10:46:09;;;;;;;7.00;1.80;;;;;;;32.76;35.53;98207.41;5101501;28;20204;-81
2021/09/11 10:48:52;;;;;;;1.85;1.48;;;;;;;31.67;38.14;98209.75;5110795;28;20253;-75
2021/09/11 10:51:24;;;;;;;1.75;1.63;;;;;;;32.35;36.36;98214.91;5109526;28;20234;-77
2021/09/11 10:54:07;;;;;;;2.90;1.90;;;;;;;31.53;38.22;98209.97;5109876;28;20901;-78
2021/09/11 10:56:37;;;;;;;3.42;1.65;;;;;;;33.35;35.33;98208.75;5108721;28;20290;-75
2021/09/11 10:59:33;;;;;;;2.47;1.83;;;;;;;33.64;34.25;98219.63;5106451;28;20229;-77
2021/09/11 11:02:04;;;;;;;4.65;1.90;;;;;;;34.16;33.50;98217.78;5098370;28;20211;-78
2021/09/11 11:04:33;;;;;;;3.22;1.85;;;;;;;32.39;36.93;98200.06;5095613;28;20205;-76
2021/09/11 11:07:02;;;;;;;5.88;1.70;;;;;;;31.83;38.19;98202.56;5114530;28;20247;-80
2021/09/11 11:09:34;;;;;;;2.70;1.70;;;;;;;32.56;37.22;98202.69;5105417;28;20583;-78
2021/09/11 11:12:01;;;;;;;1.98;1.80;;;;;;;32.37;36.27;98218.94;5107056;28;20617;-79
2021/09/11 11:14:31;;;;;;;2.95;2.03;;;;;;;30.80;42.95;98218.59;5098855;28;20211;-75
2021/09/11 11:16:59;;;;;;;14.35;4.13;;;;;;;37.18;100.00;98173.53;5099149;28;20227;-74
2021/09/11 11:20:29;;;;;;;31.93;3.77;;;;;;;-139.38;100.00;63230.50;5107382;28;20240;-78
2021/09/11 11:23:56;;;;;;;4.87;2.63;;;;;;;-139.38;100.00;63230.50;5099805;28;20207;-77
2021/09/11 11:27:23;;;;;;;13.63;4.10;;;;;;;-139.38;100.00;63230.50;5096837;28;20200;-76
2021/09/11 11:30:51;;;;;;;8.37;3.87;;;;;;;-139.38;100.00;63230.50;5110432;28;20230;-78
2021/09/11 11:34:17;;;;;;;5.77;3.83;;;;;;;-139.38;100.00;63230.50;5112480;28;20204;-79
2021/09/11 11:37:48;;;;;;;7.07;4.17;;;;;;;-139.38;100.00;63230.50;5102171;28;20282;-75
2021/09/11 11:41:16;;;;;;;8.27;4.20;;;;;;;-139.38;100.00;63230.50;5096113;28;20224;-77
2021/09/11 11:44:43;;;;;;;6.63;4.27;;;;;;;-139.38;100.00;63230.50;5101849;28;20210;-74